Time;durP1;ratioP1;P1;durP2;ratioP2;P2;SDS_P1;SDS_P2;PMS_P1;PMS_P2;Temp;Humidity;BMP_temperature;BMP_pressure;BME280_temperature;BME280_humidity;BME280_pressure;Samples;Min_cycle;Max_cycle;Signal;HPM_P1;HPM_P2
2021/09/03 00:00:03;;;;;;;16.47;12.60;;;15.40;99.90;;;;;;5081721;28;20454;-89
2021/09/03 00:02:31;;;;;;;14.77;12.70;;;15.30;99.90;;;;;;5077275;28;20819;-89
2021/09/03 00:04:57;;;;;;;15.03;13.33;;;15.30;99.90;;;;;;5075115;28;20471;-90
2021/09/03 00:07:24;;;;;;;17.83;13.40;;;15.20;99.90;;;;;;5075958;28;20948;-90
2021/09/03 00:09:51;;;;;;;13.43;11.00;;;15.10;99.90;;;;;;5075813;28;20489;-90
2021/09/03 00:12:17;;;;;;;14.90;12.17;;;15.10;99.90;;;;;;5075600;28;20477;-90
2021/09/03 00:14:44;;;;;;;14.57;12.53;;;15.10;99.90;;;;;;5076202;28;20468;-90
2021/09/03 00:17:11;;;;;;;14.27;12.87;;;15.10;99.90;;;;;;5076539;28;20455;-89
2021/09/03 00:19:39;;;;;;;14.40;13.00;;;15.10;99.90;;;;;;5075241;28;20458;-89
2021/09/03 00:22:06;;;;;;;13.10;11.77;;;15.00;99.90;;;;;;5078259;28;20440;-89
2021/09/03 00:24:33;;;;;;;16.27;12.40;;;15.10;99.90;;;;;;5076220;28;20486;-90
2021/09/03 00:27:00;;;;;;;13.27;11.83;;;15.00;99.90;;;;;;5080265;28;20442;-90
2021/09/03 00:29:26;;;;;;;13.50;11.17;;;15.10;99.90;;;;;;5080676;28;20505;-89
2021/09/03 00:31:53;;;;;;;13.90;12.53;;;15.00;99.90;;;;;;5075626;28;20454;-89
2021/09/03 00:34:20;;;;;;;14.73;12.77;;;15.00;99.90;;;;;;5075409;28;20468;-89
2021/09/03 00:36:49;;;;;;;13.67;12.03;;;15.00;99.90;;;;;;5075138;28;20442;-89
2021/09/03 00:39:15;;;;;;;13.00;11.67;;;15.10;99.90;;;;;;5074475;28;20436;-90
2021/09/03 00:41:42;;;;;;;14.23;11.47;;;15.20;99.90;;;;;;5075195;28;20462;-89
2021/09/03 00:44:09;;;;;;;13.27;11.90;;;15.10;99.90;;;;;;5086727;28;20458;-89
2021/09/03 00:46:36;;;;;;;13.90;11.47;;;15.10;99.90;;;;;;5098713;28;20450;-88
2021/09/03 00:49:02;;;;;;;15.10;12.83;;;15.00;99.90;;;;;;5098927;28;20490;-87
2021/09/03 00:51:29;;;;;;;14.63;12.33;;;15.00;99.90;;;;;;5099038;28;20444;-88
2021/09/03 00:53:57;;;;;;;13.10;11.70;;;15.00;99.90;;;;;;5096371;28;20467;-89
2021/09/03 00:56:24;;;;;;;13.17;11.87;;;14.90;99.90;;;;;;5095739;28;20427;-88
2021/09/03 00:58:50;;;;;;;13.37;12.03;;;14.80;99.90;;;;;;5087212;28;20435;-89
2021/09/03 01:01:19;;;;;;;13.93;11.40;;;14.90;99.90;;;;;;5077365;28;20443;-90
2021/09/03 01:03:46;;;;;;;12.70;11.40;;;14.90;99.90;;;;;;5079457;28;20488;-89
2021/09/03 01:06:13;;;;;;;13.33;11.00;;;14.90;99.90;;;;;;5077644;28;20449;-89
2021/09/03 01:08:40;;;;;;;14.27;12.87;;;14.80;99.90;;;;;;5076268;28;20482;-89
2021/09/03 01:11:08;;;;;;;13.00;11.67;;;14.80;99.90;;;;;;5077249;28;20473;-89
2021/09/03 01:13:35;;;;;;;13.53;12.10;;;14.70;99.90;;;;;;5089476;28;20466;-89
2021/09/03 01:16:01;;;;;;;13.00;11.80;;;14.60;99.90;;;;;;5075803;28;20453;-89
2021/09/03 01:18:28;;;;;;;14.97;12.07;;;14.60;99.90;;;;;;5079571;28;20450;-89
2021/09/03 01:20:55;;;;;;;13.43;11.67;;;14.60;99.90;;;;;;5075889;28;20457;-89
2021/09/03 01:23:23;;;;;;;14.77;12.80;;;14.50;99.90;;;;;;5074798;28;20486;-89
2021/09/03 01:25:49;;;;;;;14.97;13.07;;;14.50;99.90;;;;;;5083293;28;20429;-89
2021/09/03 01:28:16;;;;;;;16.30;12.73;;;14.50;99.90;;;;;;5093962;28;20451;-90
2021/09/03 01:30:43;;;;;;;15.63;13.50;;;14.40;99.90;;;;;;5079359;28;20486;-89
2021/09/03 01:33:10;;;;;;;13.87;11.73;;;14.20;99.90;;;;;;5087063;28;20467;-89
2021/09/03 01:35:36;;;;;;;15.00;13.47;;;14.20;99.90;;;;;;5081909;28;20441;-89
2021/09/03 01:38:05;;;;;;;13.67;12.37;;;14.20;99.90;;;;;;5076176;28;20479;-90
2021/09/03 01:40:34;;;;;;;15.87;13.30;;;14.20;99.90;;;;;;5074306;28;20843;-89
2021/09/03 01:43:00;;;;;;;16.87;14.83;;;14.20;99.90;;;;;;5073834;28;20736;-90
2021/09/03 01:45:27;;;;;;;17.43;15.50;;;14.20;99.90;;;;;;5074383;28;20450;-89
2021/09/03 01:47:54;;;;;;;16.20;13.90;;;14.10;99.90;;;;;;5073848;28;20443;-89
2021/09/03 01:50:21;;;;;;;17.97;16.17;;;14.10;99.90;;;;;;5075886;28;20483;-90
2021/09/03 01:52:47;;;;;;;16.80;15.03;;;14.10;99.90;;;;;;5077551;28;20457;-90
2021/09/03 01:55:14;;;;;;;18.07;15.17;;;14.10;99.90;;;;;;5073824;28;20443;-90
2021/09/03 01:57:42;;;;;;;17.07;15.13;;;14.10;99.90;;;;;;5073690;28;20451;-89
2021/09/03 02:00:10;;;;;;;16.90;15.20;;;14.00;99.90;;;;;;5073290;28;20460;-89
2021/09/03 02:02:36;;;;;;;27.60;16.00;;;14.10;99.90;;;;;;5073313;28;20450;-89
2021/09/03 02:05:03;;;;;;;17.90;16.00;;;14.10;99.90;;;;;;5073538;28;20479;-90
2021/09/03 02:07:30;;;;;;;19.13;15.80;;;14.00;99.90;;;;;;5073760;28;20951;-89
2021/09/03 02:09:57;;;;;;;20.77;16.37;;;13.90;99.90;;;;;;5073848;28;20486;-89
2021/09/03 02:12:23;;;;;;;17.23;15.10;;;13.90;99.90;;;;;;5075330;28;20463;-89
2021/09/03 02:14:51;;;;;;;18.57;14.60;;;13.80;99.90;;;;;;5073494;28;20467;-90
2021/09/03 02:17:18;;;;;;;21.30;15.20;;;13.80;99.90;;;;;;5074088;28;20454;-89
2021/09/03 02:19:45;;;;;;;18.90;13.33;;;13.80;99.90;;;;;;5073326;28;20436;-89
2021/09/03 02:22:12;;;;;;;14.73;13.03;;;13.80;99.90;;;;;;5073339;28;20445;-90
2021/09/03 02:24:38;;;;;;;17.67;13.47;;;13.90;99.90;;;;;;5073765;28;20469;-90
2021/09/03 02:27:05;;;;;;;19.80;14.23;;;13.90;99.90;;;;;;5072949;28;20441;-90
2021/09/03 02:29:32;;;;;;;17.47;13.27;;;13.80;99.90;;;;;;5087350;28;20490;-88
2021/09/03 02:32:00;;;;;;;16.20;14.57;;;13.80;99.90;;;;;;5074832;28;20440;-89
2021/09/03 02:34:27;;;;;;;18.33;16.23;;;13.80;99.90;;;;;;5072982;28;20469;-90
2021/09/03 02:36:53;;;;;;;22.60;15.60;;;13.80;99.90;;;;;;5073107;28;20457;-90
2021/09/03 02:39:20;;;;;;;17.03;15.37;;;13.80;99.90;;;;;;5092818;28;20419;-88
2021/09/03 02:41:47;;;;;;;14.50;13.00;;;13.90;99.90;;;;;;5087437;28;20457;-89
2021/09/03 02:44:14;;;;;;;15.30;13.70;;;13.80;99.90;;;;;;5074324;28;20477;-90
2021/09/03 02:46:40;;;;;;;16.53;14.80;;;13.70;99.90;;;;;;5074348;28;20980;-89
2021/09/03 02:49:08;;;;;;;16.93;15.07;;;13.70;99.90;;;;;;5072683;28;20631;-89
2021/09/03 02:51:35;;;;;;;18.87;14.33;;;13.60;99.90;;;;;;5072403;28;20964;-89
2021/09/03 02:54:02;;;;;;;15.40;13.80;;;13.50;99.90;;;;;;5072306;28;20477;-89
2021/09/03 02:56:28;;;;;;;15.23;13.33;;;13.40;99.90;;;;;;5072331;28;20461;-90
2021/09/03 02:58:55;;;;;;;13.70;12.20;;;13.40;99.90;;;;;;5072071;28;20448;-90
2021/09/03 03:01:22;;;;;;;15.43;13.23;;;13.50;99.90;;;;;;5074585;28;20828;-89
2021/09/03 03:03:48;;;;;;;13.70;12.30;;;13.60;99.90;;;;;;5084133;28;20467;-88
2021/09/03 03:06:16;;;;;;;14.63;11.63;;;13.60;99.90;;;;;;5097302;28;20444;-89
2021/09/03 03:08:43;;;;;;;13.90;12.40;;;13.60;99.90;;;;;;5092526;28;20450;-89
2021/09/03 03:11:10;;;;;;;14.57;13.00;;;13.60;99.90;;;;;;5087398;28;20483;-89
2021/09/03 03:13:38;;;;;;;11.77;10.57;;;13.60;99.90;;;;;;5090221;28;20461;-89
2021/09/03 03:16:05;;;;;;;14.13;11.80;;;13.50;99.90;;;;;;5078115;28;20464;-89
2021/09/03 03:18:33;;;;;;;13.90;12.27;;;13.50;99.90;;;;;;5077607;28;20810;-89
2021/09/03 03:21:01;;;;;;;14.17;12.77;;;13.50;99.90;;;;;;5077739;28;20446;-89
2021/09/03 03:23:29;;;;;;;12.47;11.20;;;13.60;99.90;;;;;;5077076;28;20461;-90
2021/09/03 03:25:56;;;;;;;14.03;12.33;;;13.50;99.90;;;;;;5076633;28;20459;-90
2021/09/03 03:28:22;;;;;;;12.20;11.00;;;13.40;99.90;;;;;;5076745;28;20438;-89
2021/09/03 03:30:49;;;;;;;13.40;12.00;;;13.40;99.90;;;;;;5079507;28;20489;-89
2021/09/03 03:33:16;;;;;;;15.00;11.30;;;13.40;99.90;;;;;;5081355;28;20471;-89
2021/09/03 03:35:43;;;;;;;14.20;12.20;;;13.30;99.90;;;;;;5084340;28;20450;-89
2021/09/03 03:38:09;;;;;;;18.03;11.73;;;13.20;99.90;;;;;;5098808;28;20441;-87
2021/09/03 03:40:37;;;;;;;12.27;11.13;;;13.20;99.90;;;;;;5098848;28;20452;-89
2021/09/03 03:43:04;;;;;;;13.53;12.13;;;13.20;99.90;;;;;;5098033;28;20543;-89
2021/09/03 03:45:31;;;;;;;20.43;11.40;;;13.20;99.90;;;;;;5099101;28;20519;-88
2021/09/03 03:47:58;;;;;;;11.60;10.40;;;13.20;99.90;;;;;;5095725;28;20437;-87
2021/09/03 03:50:25;;;;;;;14.30;11.50;;;13.30;99.90;;;;;;5096586;28;20486;-88
2021/09/03 03:52:52;;;;;;;12.43;11.07;;;13.30;99.90;;;;;;5099842;28;20512;-88
2021/09/03 03:55:18;;;;;;;11.83;10.57;;;13.30;99.90;;;;;;5099781;28;20446;-89
2021/09/03 03:57:46;;;;;;;12.53;11.30;;;13.20;99.90;;;;;;5092248;28;20437;-90
2021/09/03 04:00:15;;;;;;;11.63;10.47;;;13.10;99.90;;;;;;5078496;28;20437;-89
2021/09/03 04:02:41;;;;;;;13.30;11.97;;;13.10;99.90;;;;;;5077315;28;20800;-90
2021/09/03 04:05:09;;;;;;;14.43;11.03;;;13.20;99.90;;;;;;5078429;28;20453;-89
2021/09/03 04:07:36;;;;;;;12.53;11.40;;;13.20;99.90;;;;;;5078399;28;20445;-89
2021/09/03 04:10:03;;;;;;;13.70;10.30;;;13.30;99.90;;;;;;5076597;28;20479;-89
2021/09/03 04:12:29;;;;;;;15.40;10.53;;;13.20;99.90;;;;;;5076465;28;20447;-89
2021/09/03 04:14:57;;;;;;;12.77;9.73;;;13.10;99.90;;;;;;5076204;28;20451;-89
2021/09/03 04:17:24;;;;;;;11.87;10.40;;;13.10;99.90;;;;;;5077819;28;20451;-90
2021/09/03 04:19:51;;;;;;;11.43;10.30;;;13.10;99.90;;;;;;5077348;28;20812;-89
2021/09/03 04:22:18;;;;;;;11.80;10.57;;;13.10;99.90;;;;;;5075850;28;20473;-90
2021/09/03 04:24:44;;;;;;;12.17;10.97;;;13.00;99.90;;;;;;5075952;28;20448;-89
2021/09/03 04:27:11;;;;;;;11.40;10.30;;;13.00;99.90;;;;;;5098416;28;20460;-89
2021/09/03 04:29:37;;;;;;;17.83;10.70;;;13.00;99.90;;;;;;5096069;28;20999;-87
2021/09/03 04:32:07;;;;;;;12.87;11.57;;;13.00;99.90;;;;;;5091526;28;20508;-86
2021/09/03 04:34:33;;;;;;;12.93;11.53;;;13.00;99.90;;;;;;5094483;28;20446;-87
2021/09/03 04:37:00;;;;;;;13.30;11.90;;;12.80;99.90;;;;;;5070935;28;20490;-88
2021/09/03 04:39:27;;;;;;;19.67;12.30;;;12.80;99.90;;;;;;5078307;28;20445;-87
2021/09/03 04:41:53;;;;;;;13.73;12.23;;;12.80;99.90;;;;;;5087045;28;20445;-88
2021/09/03 04:44:21;;;;;;;13.53;12.13;;;12.80;99.90;;;;;;5086637;22;20515;-95
2021/09/03 04:46:49;;;;;;;14.60;13.10;;;12.70;99.90;;;;;;5075657;28;20418;-93
2021/09/03 04:49:18;;;;;;;12.97;11.67;;;12.70;99.90;;;;;;5079194;28;20440;-92
2021/09/03 04:51:45;;;;;;;12.50;11.20;;;12.70;99.90;;;;;;5078553;28;20441;-93
2021/09/03 04:54:12;;;;;;;13.97;11.10;;;12.60;99.90;;;;;;5087172;28;20511;-93
2021/09/03 04:56:40;;;;;;;13.43;12.10;;;12.60;99.90;;;;;;5099703;28;20507;-92
2021/09/03 04:59:07;;;;;;;14.37;12.90;;;12.60;99.90;;;;;;5098233;28;20447;-94
2021/09/03 05:01:33;;;;;;;13.63;11.90;;;12.50;99.90;;;;;;5098373;28;20570;-93
2021/09/03 05:04:00;;;;;;;11.20;10.10;;;12.60;99.90;;;;;;5090109;28;20458;-93
2021/09/03 05:06:29;;;;;;;14.13;12.73;;;12.60;99.90;;;;;;5088396;28;20452;-93
2021/09/03 05:08:56;;;;;;;11.77;10.73;;;12.70;99.90;;;;;;5089657;28;20487;-92
2021/09/03 05:11:42;;;;;;;12.70;10.37;;;12.70;99.90;;;;;;5079879;28;20441;-90
2021/09/03 05:14:30;;;;;;;12.93;10.83;;;12.60;99.90;;;;;;5086912;28;20463;-91
2021/09/03 05:17:06;;;;;;;13.53;12.13;;;12.60;99.90;;;;;;5081129;28;20435;-91
2021/09/03 05:19:54;;;;;;;13.83;12.43;;;12.70;99.90;;;;;;5077732;28;21009;-91
2021/09/03 05:22:53;;;;;;;17.50;14.73;;;12.70;99.90;;;;;;5077244;28;20928;-90
2021/09/03 05:25:39;;;;;;;17.17;15.40;;;12.70;99.90;;;;;;5076465;28;20464;-91
2021/09/03 05:28:21;;;;;;;21.23;15.73;;;12.80;99.90;;;;;;5077344;28;20954;-91
2021/09/03 05:30:56;;;;;;;21.27;15.97;;;12.90;99.90;;;;;;5080175;28;20872;-92
2021/09/03 05:37:09;;;;;;;23.40;16.87;;;12.90;99.90;;;;;;5006228;28;20438;-92
2021/09/03 05:39:41;;;;;;;21.80;16.73;;;13.00;99.90;;;;;;5076176;28;20448;-91
2021/09/03 05:42:27;;;;;;;21.27;16.43;;;13.00;99.90;;;;;;5078721;28;20476;-92
2021/09/03 05:45:03;;;;;;;22.97;17.40;;;13.00;99.90;;;;;;5075581;28;20583;-92
2021/09/03 05:47:53;;;;;;;22.80;16.93;;;13.10;99.90;;;;;;5075677;28;20447;-91
2021/09/03 05:54:23;;;;;;;23.77;17.10;;;13.10;99.90;;;;;;4989397;28;20453;-92
2021/09/03 05:56:54;;;;;;;22.37;19.00;;;13.10;99.90;;;;;;5038396;28;20452;-88
2021/09/03 05:59:45;;;;;;;21.73;18.43;;;13.20;99.90;;;;;;5078077;28;20455;-91
2021/09/03 06:02:24;;;;;;;22.27;19.50;;;13.20;99.90;;;;;;5079611;28;21190;-91
2021/09/03 06:11:54;;;;;;;;;;;;;;;;;;;;;
2021/09/03 06:15:14;;;;;;;23.57;19.20;;;13.50;99.90;;;;;;5081847;28;20465;-91
2021/09/03 06:23:58;;;;;;;;;;;;;;;;;;;;;
2021/09/03 06:33:26;;;;;;;23.27;20.30;;;14.30;99.90;;;;;;5070908;28;20428;-91
2021/09/03 06:36:34;;;;;;;23.90;18.90;;;14.50;99.90;;;;;;5076779;28;20427;-91
2021/09/03 06:39:25;;;;;;;23.90;18.63;;;14.70;99.90;;;;;;5085349;28;20498;-91
2021/09/03 06:42:08;;;;;;;27.13;18.93;;;14.90;99.90;;;;;;5073389;28;20471;-91
2021/09/03 06:51:16;;;;;;;24.23;20.80;;;15.60;99.90;;;;;;5025384;28;20447;-90
2021/09/03 06:53:52;;;;;;;30.43;22.00;;;15.90;99.90;;;;;;5090862;28;20448;-91
2021/09/03 06:56:43;;;;;;;28.37;20.10;;;16.10;99.90;;;;;;5090473;28;20448;-90
2021/09/03 06:59:45;;;;;;;25.00;19.70;;;16.30;99.90;;;;;;4996026;28;20454;-91
2021/09/03 07:05:15;;;;;;;26.57;20.07;;;16.60;99.90;;;;;;5073300;28;20989;-91
2021/09/03 07:13:45;;;;;;;15.43;12.80;;;17.20;99.90;;;;;;5077649;28;20462;-91
2021/09/03 07:16:48;;;;;;;13.43;12.03;;;17.70;99.90;;;;;;5095839;28;20444;-92
2021/09/03 07:19:47;;;;;;;14.93;12.60;;;18.80;99.90;;;;;;5083013;28;20439;-90
2021/09/03 07:22:50;;;;;;;12.63;11.33;;;20.80;99.90;;;;;;5017096;28;20474;-91
2021/09/03 07:29:35;;;;;;;13.50;12.17;;;22.40;95.20;;;;;;5083488;28;20482;-91
2021/09/03 07:38:01;;;;;;;11.17;10.07;;;24.00;93.00;;;;;;5071190;28;20993;-92
2021/09/03 07:50:49;;;;;;;12.07;10.80;;;21.80;94.00;;;;;;4943443;28;20460;-92
2021/09/03 07:54:18;;;;;;;13.77;12.50;;;21.40;94.30;;;;;;5018842;28;20451;-91
2021/09/03 08:04:30;;;;;;;;;;;;;;;;;;;;;
2021/09/03 08:14:02;;;;;;;15.57;11.40;;;20.20;97.90;;;;;;5060826;28;20506;-90
2021/09/03 08:20:02;;;;;;;14.83;11.83;;;20.40;97.00;;;;;;5069166;28;20441;-90
2021/09/03 08:43:30;;;;;;;10.87;9.90;;;24.60;94.00;;;;;;4872116;29;20444;-91
2021/09/03 09:00:00;;;;;;;;;;;;;;;;;;;;;
2021/09/03 09:03:30;;;;;;;;;;;;;;;;;;;;;
2021/09/03 09:11:45;;;;;;;10.70;9.70;;;32.70;55.10;;;;;;5057651;28;20475;-87
2021/09/03 09:14:15;;;;;;;9.70;8.80;;;33.20;53.30;;;;;;5071305;28;20440;-87
2021/09/03 09:16:43;;;;;;;10.53;9.53;;;33.70;52.80;;;;;;5075828;28;20450;-88
2021/09/03 09:19:09;;;;;;;10.53;9.67;;;33.90;51.10;;;;;;5076887;28;20444;-87
2021/09/03 09:21:38;;;;;;;10.07;9.27;;;33.50;51.10;;;;;;5078490;28;20476;-87
2021/09/03 09:24:07;;;;;;;10.60;9.70;;;33.60;51.50;;;;;;5074980;28;20441;-88
2021/09/03 09:26:43;;;;;;;10.60;9.70;;;35.00;50.10;;;;;;5064743;28;20539;-88
2021/09/03 09:29:15;;;;;;;9.63;8.70;;;35.40;48.30;;;;;;5072145;28;20442;-88
2021/09/03 09:31:42;;;;;;;10.10;9.30;;;36.20;47.70;;;;;;5075424;28;20460;-88
2021/09/03 09:34:20;;;;;;;10.50;9.60;;;37.60;45.50;;;;;;5075477;28;20455;-89
2021/09/03 09:36:48;;;;;;;9.50;8.70;;;37.90;43.70;;;;;;5057479;28;20482;-89
2021/09/03 09:39:16;;;;;;;9.50;8.80;;;36.30;45.30;;;;;;5061239;28;20456;-87
2021/09/03 09:41:44;;;;;;;10.07;9.10;;;36.30;44.40;;;;;;5062802;28;21027;-87
2021/09/03 09:44:11;;;;;;;9.57;8.77;;;36.80;44.60;;;;;;5061842;28;20444;-87
2021/09/03 09:46:39;;;;;;;8.80;8.00;;;38.00;43.70;;;;;;5066423;28;20446;-87
2021/09/03 09:49:14;;;;;;;9.00;8.30;;;38.90;41.60;;;;;;5069792;28;20445;-87
2021/09/03 09:51:51;;;;;;;9.60;8.83;;;37.60;42.70;;;;;;5058261;28;20458;-88
2021/09/03 09:54:21;;;;;;;9.50;8.73;;;37.50;42.30;;;;;;5056762;28;20443;-87
2021/09/03 09:56:49;;;;;;;9.90;9.00;;;38.20;41.60;;;;;;5055653;28;20912;-87
2021/09/03 09:59:18;;;;;;;9.47;8.73;;;38.30;40.90;;;;;;5056906;28;20821;-87
2021/09/03 10:01:49;;;;;;;9.10;8.30;;;39.20;40.30;;;;;;5054353;28;20480;-87
2021/09/03 10:04:17;;;;;;;9.40;8.63;;;40.30;38.40;;;;;;5054173;28;20447;-87
2021/09/03 10:06:45;;;;;;;8.77;7.97;;;41.10;37.10;;;;;;5053589;28;20440;-88
2021/09/03 10:09:14;;;;;;;9.23;8.57;;;41.70;36.70;;;;;;5054694;28;20455;-88
2021/09/03 10:11:42;;;;;;;10.03;9.20;;;42.50;35.30;;;;;;5054398;28;21023;-88
2021/09/03 10:14:12;;;;;;;9.83;9.03;;;42.40;34.20;;;;;;5057941;28;20452;-88
2021/09/03 10:16:38;;;;;;;9.30;8.47;;;42.40;34.60;;;;;;5054163;28;20937;-88
2021/09/03 10:19:08;;;;;;;9.77;8.90;;;43.20;34.40;;;;;;5053426;28;20448;-88
2021/09/03 10:21:39;;;;;;;9.10;8.23;;;43.20;33.20;;;;;;5053565;28;20847;-88
2021/09/03 10:24:11;;;;;;;9.10;8.40;;;43.20;33.50;;;;;;5053800;28;20460;-87
2021/09/03 10:26:40;;;;;;;8.80;7.90;;;40.80;35.40;;;;;;5053664;28;20816;-87
2021/09/03 10:29:32;;;;;;;8.80;8.10;;;41.10;35.30;;;;;;5057051;28;20447;-87
2021/09/03 10:32:25;;;;;;;7.67;7.17;;;41.80;34.80;;;;;;5054533;28;20518;-87
2021/09/03 10:35:02;;;;;;;8.07;7.47;;;41.60;34.80;;;;;;5054440;28;20456;-87
2021/09/03 10:37:34;;;;;;;8.57;7.97;;;41.30;34.50;;;;;;5053835;28;20444;-87
2021/09/03 10:40:06;;;;;;;9.37;8.57;;;41.00;34.90;;;;;;5058109;28;20464;-87
2021/09/03 10:42:45;;;;;;;9.73;8.80;;;39.50;36.70;;;;;;5054535;28;20483;-87
2021/09/03 10:45:14;;;;;;;8.20;7.60;;;39.10;37.60;;;;;;5053673;28;20444;-87
2021/09/03 10:47:42;;;;;;;9.00;8.30;;;39.60;37.40;;;;;;5053587;28;20543;-87
2021/09/03 10:50:13;;;;;;;8.83;8.23;;;40.40;36.60;;;;;;5053969;28;20479;-87
2021/09/03 10:52:39;;;;;;;8.63;7.93;;;39.50;37.60;;;;;;5052488;28;20451;-88
2021/09/03 10:55:09;;;;;;;7.40;6.80;;;40.00;36.60;;;;;;5053882;28;20452;-87
2021/09/03 10:57:57;;;;;;;7.90;7.20;;;39.10;37.20;;;;;;5053814;28;20452;-87
2021/09/03 11:00:24;;;;;;;8.00;7.30;;;40.30;36.80;;;;;;5053051;28;20463;-87
2021/09/03 11:02:51;;;;;;;8.60;7.90;;;40.00;36.30;;;;;;5055366;28;20472;-87
2021/09/03 11:05:19;;;;;;;8.37;7.77;;;39.70;37.00;;;;;;5061680;28;20448;-87
2021/09/03 11:07:47;;;;;;;8.30;7.70;;;39.60;37.20;;;;;;5053304;28;20448;-87
2021/09/03 11:10:17;;;;;;;7.80;7.10;;;40.70;36.50;;;;;;5053439;28;20468;-87
2021/09/03 11:12:49;;;;;;;7.70;7.10;;;41.50;34.80;;;;;;5052852;28;20451;-88
2021/09/03 11:15:16;;;;;;;7.30;6.60;;;40.10;35.70;;;;;;5058552;28;20459;-87
2021/09/03 11:17:43;;;;;;;7.53;6.80;;;38.80;37.20;;;;;;5073882;28;20488;-87
2021/09/03 11:20:10;;;;;;;7.37;6.77;;;40.30;36.50;;;;;;5054805;28;20483;-87
2021/09/03 11:22:38;;;;;;;7.20;6.70;;;40.10;36.40;;;;;;5055204;28;20480;-87
2021/09/03 11:25:07;;;;;;;7.97;7.27;;;41.10;35.30;;;;;;5059657;28;20445;-87
2021/09/03 11:27:36;;;;;;;7.80;7.20;;;42.20;33.90;;;;;;5057826;28;20444;-87
2021/09/03 11:30:05;;;;;;;7.13;6.43;;;43.10;32.80;;;;;;5058937;28;20467;-88
2021/09/03 11:32:36;;;;;;;7.57;6.97;;;41.90;34.30;;;;;;5061829;28;20534;-87
2021/09/03 11:35:03;;;;;;;6.80;6.20;;;40.40;34.60;;;;;;5079402;28;20512;-86
2021/09/03 11:37:36;;;;;;;7.60;7.00;;;40.40;35.20;;;;;;5064837;28;20455;-87
2021/09/03 11:40:26;;;;;;;7.80;7.20;;;40.50;34.70;;;;;;5057131;28;20476;-87
2021/09/03 11:42:55;;;;;;;7.10;6.60;;;40.50;34.90;;;;;;5057189;28;20515;-87
2021/09/03 11:45:24;;;;;;;6.27;5.87;;;41.20;34.70;;;;;;5056492;28;20444;-87
2021/09/03 11:47:53;;;;;;;6.70;6.20;;;41.60;33.50;;;;;;5056292;28;20886;-87
2021/09/03 11:50:26;;;;;;;7.60;7.00;;;42.50;32.50;;;;;;5056014;28;20475;-87
2021/09/03 11:52:53;;;;;;;7.00;6.50;;;43.10;31.80;;;;;;5062621;28;20717;-86
2021/09/03 11:55:20;;;;;;;8.10;7.40;;;42.90;31.80;;;;;;5077620;28;20442;-87
2021/09/03 11:57:54;;;;;;;7.20;6.60;;;40.90;33.40;;;;;;5077816;28;20416;-86
2021/09/03 12:00:22;;;;;;;7.20;6.60;;;40.30;34.30;;;;;;5074920;28;20470;-87
2021/09/03 12:02:50;;;;;;;7.33;6.73;;;40.60;34.30;;;;;;5063008;28;20484;-87
2021/09/03 12:05:17;;;;;;;7.07;6.47;;;41.70;33.10;;;;;;5062513;28;20478;-87
2021/09/03 12:08:06;;;;;;;7.70;7.10;;;42.20;32.80;;;;;;5058937;28;20456;-87
2021/09/03 12:10:35;;;;;;;7.47;6.97;;;42.00;32.90;;;;;;5061141;28;20476;-87
2021/09/03 12:13:11;;;;;;;7.53;6.93;;;40.50;34.20;;;;;;5060444;28;20534;-87
2021/09/03 12:15:39;;;;;;;7.10;6.60;;;40.70;34.10;;;;;;5070372;28;20432;-87
2021/09/03 12:18:18;;;;;;;7.97;7.37;;;40.40;34.40;;;;;;5058639;28;20924;-87
2021/09/03 12:20:49;;;;;;;6.93;6.33;;;40.80;33.60;;;;;;5059567;28;20456;-87
2021/09/03 12:23:16;;;;;;;6.33;5.83;;;40.10;33.60;;;;;;5059214;28;20487;-87
2021/09/03 12:25:43;;;;;;;6.87;6.30;;;40.90;33.30;;;;;;5057111;28;20441;-87
2021/09/03 12:28:13;;;;;;;7.27;6.77;;;42.10;32.40;;;;;;5055954;28;20436;-88
2021/09/03 12:30:41;;;;;;;7.10;6.60;;;42.00;32.40;;;;;;5056426;28;20487;-87
2021/09/03 12:33:21;;;;;;;6.90;6.40;;;40.60;33.10;;;;;;5055262;28;20483;-87
2021/09/03 12:35:48;;;;;;;7.67;6.93;;;39.30;34.50;;;;;;5055433;28;20448;-87
2021/09/03 12:38:15;;;;;;;6.60;6.10;;;38.40;35.40;;;;;;5055799;28;20444;-87
2021/09/03 12:40:42;;;;;;;7.40;6.70;;;38.50;35.90;;;;;;5055689;28;20476;-87
2021/09/03 12:43:14;;;;;;;5.83;5.43;;;39.40;35.90;;;;;;5055634;28;20476;-87
2021/09/03 12:45:45;;;;;;;7.00;6.37;;;38.70;35.20;;;;;;5056336;28;20562;-87
2021/09/03 12:48:12;;;;;;;7.40;6.80;;;38.80;35.80;;;;;;5055623;28;20871;-87
2021/09/03 12:50:44;;;;;;;6.93;6.33;;;39.50;34.20;;;;;;5055592;28;20465;-87
2021/09/03 12:53:18;;;;;;;6.83;6.33;;;40.20;34.00;;;;;;5055332;28;20441;-87
2021/09/03 12:55:45;;;;;;;6.70;6.20;;;40.70;32.80;;;;;;5055481;28;20539;-87
2021/09/03 12:58:11;;;;;;;6.60;6.10;;;39.60;33.80;;;;;;5054905;28;20444;-86
2021/09/03 13:00:40;;;;;;;6.27;5.87;;;39.60;33.70;;;;;;5055207;28;20480;-87
2021/09/03 13:03:07;;;;;;;6.33;5.90;;;39.70;33.20;;;;;;5054805;28;20851;-87
2021/09/03 13:05:34;;;;;;;6.23;5.77;;;40.40;33.20;;;;;;5054452;28;20444;-86
2021/09/03 13:08:01;;;;;;;6.63;6.13;;;40.00;33.10;;;;;;5054675;28;20463;-87
2021/09/03 13:10:27;;;;;;;6.70;6.13;;;40.30;33.60;;;;;;5070415;28;20462;-86
2021/09/03 13:12:54;;;;;;;6.40;5.90;;;40.10;32.90;;;;;;5067197;28;20833;-87
2021/09/03 13:15:22;;;;;;;5.90;5.50;;;40.30;32.70;;;;;;5076114;28;20450;-87
2021/09/03 13:17:50;;;;;;;6.23;5.80;;;41.30;32.00;;;;;;5074496;28;20448;-87
2021/09/03 13:20:18;;;;;;;5.80;5.40;;;41.30;31.70;;;;;;5059691;28;20856;-87
2021/09/03 13:22:45;;;;;;;6.63;6.03;;;41.20;30.80;;;;;;5058978;28;20491;-87
2021/09/03 13:25:12;;;;;;;6.67;6.07;;;40.60;31.50;;;;;;5076040;28;20453;-87
2021/09/03 13:27:39;;;;;;;6.40;5.90;;;40.60;31.90;;;;;;5064354;28;20993;-87
2021/09/03 13:30:06;;;;;;;6.57;6.07;;;40.80;32.00;;;;;;5056677;28;20598;-86
2021/09/03 13:32:33;;;;;;;6.43;5.80;;;41.20;31.40;;;;;;5057985;28;20448;-86
2021/09/03 13:35:01;;;;;;;6.23;5.60;;;41.30;30.90;;;;;;5055297;28;20455;-86
2021/09/03 13:37:28;;;;;;;5.67;5.27;;;40.60;30.60;;;;;;5054372;28;20455;-87
2021/09/03 13:39:54;;;;;;;5.40;5.00;;;39.40;31.60;;;;;;5054681;28;20468;-89
2021/09/03 13:42:25;;;;;;;5.63;5.23;;;39.10;33.00;;;;;;5054513;28;20452;-90
2021/09/03 13:44:55;;;;;;;6.10;5.60;;;38.40;33.40;;;;;;5055315;28;20995;-89
2021/09/03 13:54:51;;;;;;;6.47;5.87;;;33.00;41.30;;;;;;4892635;28;20824;-90
2021/09/03 13:57:18;;;;;;;5.93;5.43;;;32.30;42.40;;;;;;4973876;28;20439;-87
2021/09/03 13:59:45;;;;;;;6.43;5.90;;;31.50;44.70;;;;;;4999035;28;20464;-88
2021/09/03 14:02:11;;;;;;;8.47;6.70;;;30.80;45.70;;;;;;5054850;28;20455;-86
2021/09/03 14:04:38;;;;;;;5.83;5.40;;;30.70;45.20;;;;;;5055312;28;21091;-88
2021/09/03 14:07:06;;;;;;;5.67;5.23;;;30.40;44.50;;;;;;5058618;28;20957;-89
2021/09/03 14:09:36;;;;;;;6.20;5.70;;;30.20;44.60;;;;;;5054317;28;20814;-88
2021/09/03 14:12:12;;;;;;;7.13;5.63;;;29.60;46.40;;;;;;5054865;28;20452;-89
2021/09/03 14:14:42;;;;;;;6.57;5.90;;;29.50;46.60;;;;;;5054863;28;20876;-89
2021/09/03 14:17:09;;;;;;;6.40;5.80;;;29.80;46.50;;;;;;5054161;28;20456;-87
2021/09/03 14:19:37;;;;;;;5.77;5.33;;;29.90;45.00;;;;;;5053741;28;21000;-86
2021/09/03 14:22:04;;;;;;;6.00;5.50;;;29.40;45.50;;;;;;5052954;28;20948;-87
2021/09/03 14:24:31;;;;;;;6.20;5.67;;;29.00;45.50;;;;;;5053821;28;20488;-86
2021/09/03 14:26:58;;;;;;;6.20;5.70;;;28.80;46.60;;;;;;5065475;28;20458;-86
2021/09/03 14:29:26;;;;;;;6.07;5.53;;;28.40;46.50;;;;;;5054388;28;20949;-86
2021/09/03 14:31:52;;;;;;;6.03;5.43;;;28.30;47.80;;;;;;5053727;28;20451;-86
2021/09/03 14:34:20;;;;;;;6.17;5.60;;;28.20;46.90;;;;;;5053547;28;20933;-87
2021/09/03 14:36:47;;;;;;;7.20;6.50;;;27.90;47.80;;;;;;5054272;28;20448;-87
2021/09/03 14:39:16;;;;;;;6.20;5.60;;;28.00;48.30;;;;;;5053941;28;20451;-87
2021/09/03 14:41:42;;;;;;;6.50;5.90;;;28.10;47.70;;;;;;5053368;28;20835;-85
2021/09/03 14:44:09;;;;;;;5.43;4.93;;;28.00;47.80;;;;;;5053456;28;20490;-85
2021/09/03 14:46:38;;;;;;;7.27;6.60;;;27.70;46.80;;;;;;5054685;28;20461;-85
2021/09/03 14:49:07;;;;;;;7.00;6.40;;;27.60;47.40;;;;;;5052955;28;20508;-86
2021/09/03 14:51:33;;;;;;;7.87;7.07;;;27.60;47.20;;;;;;5053614;28;20445;-86
2021/09/03 14:54:00;;;;;;;7.77;7.07;;;27.80;47.70;;;;;;5053642;28;20471;-86
2021/09/03 14:56:28;;;;;;;7.40;6.77;;;28.00;47.20;;;;;;5069321;28;20456;-86
2021/09/03 14:58:54;;;;;;;6.83;6.10;;;28.10;48.70;;;;;;5073310;28;20486;-86
2021/09/03 15:01:21;;;;;;;7.00;6.00;;;28.20;48.90;;;;;;5078746;28;20463;-86
2021/09/03 15:03:50;;;;;;;6.37;5.20;;;28.80;46.90;;;;;;5060378;28;20962;-86
2021/09/03 15:06:19;;;;;;;7.03;6.43;;;29.20;46.60;;;;;;5064454;28;20440;-86